createdAt,value
2023-02-03T00:00:27.499Z,975.27
2023-02-03T00:01:27.135Z,975.37
2023-02-03T00:02:27.254Z,975.39
2023-02-03T00:03:27.176Z,975.4
2023-02-03T00:04:27.155Z,975.41
2023-02-03T00:05:27.239Z,975.42
2023-02-03T00:06:27.331Z,975.39
2023-02-03T00:07:27.154Z,975.41
2023-02-03T00:08:27.275Z,975.42
2023-02-03T00:09:27.222Z,975.38
2023-02-03T00:11:27.308Z,975.39
2023-02-03T00:12:27.163Z,975.4
2023-02-03T00:13:27.193Z,975.43
2023-02-03T00:14:27.169Z,975.39
2023-02-03T00:15:27.175Z,975.37
2023-02-03T00:16:27.394Z,975.38
2023-02-03T00:17:27.257Z,975.36
2023-02-03T00:18:27.187Z,975.3
2023-02-03T00:19:27.177Z,975.29
2023-02-03T00:20:27.520Z,975.21
2023-02-03T00:21:27.195Z,975.22
2023-02-03T00:22:27.301Z,975.21
2023-02-03T00:24:27.238Z,975.25
2023-02-03T00:25:27.204Z,975.21
2023-02-03T00:28:27.294Z,975.19
2023-02-03T00:29:27.282Z,975.17
2023-02-03T00:31:27.453Z,975.15
2023-02-03T00:32:27.320Z,975.17
2023-02-03T00:33:27.349Z,975.18
2023-02-03T00:35:27.262Z,975.16
2023-02-03T00:36:27.222Z,975.17
2023-02-03T00:37:27.224Z,975.15
2023-02-03T00:39:27.307Z,975.09
2023-02-03T00:40:27.754Z,975.11
2023-02-03T00:42:27.249Z,975.14
2023-02-03T00:43:27.245Z,975.15
2023-02-03T00:44:27.242Z,975.16
2023-02-03T00:45:27.247Z,975.21
2023-02-03T00:46:27.324Z,975.34
2023-02-03T00:48:27.304Z,975.37
2023-02-03T00:49:27.285Z,975.36
2023-02-03T00:50:27.641Z,975.39
2023-02-03T00:51:27.414Z,975.44
2023-02-03T00:52:27.265Z,975.49
2023-02-03T00:53:27.295Z,975.54
2023-02-03T00:54:27.398Z,975.52
2023-02-03T00:57:27.417Z,975.56
2023-02-03T00:58:27.306Z,975.58
2023-02-03T00:59:27.340Z,975.54
2023-02-03T01:00:27.532Z,975.52
2023-02-03T01:02:27.499Z,975.5
2023-02-03T01:03:27.306Z,975.49
2023-02-03T01:04:27.389Z,975.5
2023-02-03T01:06:27.383Z,975.54
2023-02-03T01:07:27.366Z,975.55
2023-02-03T01:08:27.302Z,975.53
2023-02-03T01:09:27.294Z,975.54
2023-02-03T01:10:27.558Z,975.53
2023-02-03T01:12:27.390Z,975.51
2023-02-03T01:14:27.345Z,975.54
2023-02-03T01:15:27.416Z,975.57
2023-02-03T01:17:27.438Z,975.63
2023-02-03T01:18:27.332Z,975.62
2023-02-03T01:19:27.350Z,975.69
2023-02-03T01:20:27.609Z,975.72
2023-02-03T01:21:27.358Z,975.75
2023-02-03T01:22:27.500Z,975.79
2023-02-03T01:23:27.447Z,975.85
2023-02-03T01:24:27.419Z,975.82
2023-02-03T01:25:27.335Z,975.87
2023-02-03T01:26:27.347Z,975.86
2023-02-03T01:27:27.420Z,975.84
2023-02-03T01:28:27.366Z,975.86
2023-02-03T01:29:27.469Z,975.84
2023-02-03T01:30:27.832Z,975.86
2023-02-03T01:31:27.559Z,975.84
2023-02-03T01:32:27.481Z,975.8
2023-02-03T01:33:27.426Z,975.86
2023-02-03T01:34:27.373Z,975.84
2023-02-03T01:36:27.458Z,975.87
2023-02-03T01:37:27.394Z,975.89
2023-02-03T01:38:27.479Z,975.92
2023-02-03T01:39:27.434Z,975.93
2023-02-03T01:40:27.706Z,975.96
2023-02-03T01:41:27.392Z,975.94
2023-02-03T01:42:27.577Z,975.99
2023-02-03T01:43:27.394Z,975.97
2023-02-03T01:44:27.399Z,975.99
2023-02-03T01:45:27.400Z,975.95
2023-02-03T01:46:27.437Z,975.96
2023-02-03T01:48:27.456Z,975.94
2023-02-03T01:49:27.543Z,975.97
2023-02-03T01:50:27.603Z,976
2023-02-03T01:51:27.426Z,975.99
2023-02-03T01:52:27.411Z,976
2023-02-03T01:54:27.415Z,975.94
2023-02-03T01:55:27.532Z,975.96
2023-02-03T01:56:27.499Z,975.97
2023-02-03T01:57:27.486Z,975.96
2023-02-03T01:58:27.575Z,975.91
2023-02-03T01:59:27.430Z,975.92
2023-02-03T02:00:27.963Z,975.8
2023-02-03T02:01:27.593Z,975.86
2023-02-03T02:02:27.576Z,975.83
2023-02-03T02:03:27.465Z,975.79
2023-02-03T02:04:27.553Z,975.8
2023-02-03T02:05:27.541Z,975.83
2023-02-03T02:06:27.509Z,975.8
2023-02-03T02:07:27.556Z,975.81
2023-02-03T02:08:27.635Z,975.8
2023-02-03T02:09:27.501Z,975.84
2023-02-03T02:11:27.541Z,975.89
2023-02-03T02:12:27.517Z,975.92
2023-02-03T02:13:27.459Z,975.95
2023-02-03T02:14:27.583Z,975.99
2023-02-03T02:15:27.832Z,976
2023-02-03T02:16:27.630Z,976.06
2023-02-03T02:18:27.471Z,976.1
2023-02-03T02:19:27.604Z,976.15
2023-02-03T02:21:27.511Z,976.19
2023-02-03T02:22:27.594Z,976.2
2023-02-03T02:23:27.637Z,976.17
2023-02-03T02:24:27.495Z,976.16
2023-02-03T02:25:27.583Z,976.11
2023-02-03T02:27:27.619Z,976.09
2023-02-03T02:28:27.596Z,976.08
2023-02-03T02:31:27.919Z,976.12
2023-02-03T02:32:27.701Z,976.08
2023-02-03T02:33:27.626Z,976.03
2023-02-03T02:34:27.510Z,976.01
2023-02-03T02:35:27.516Z,976
2023-02-03T02:36:27.538Z,976.04
2023-02-03T02:37:27.602Z,976.01
2023-02-03T02:38:27.663Z,975.92
2023-02-03T02:39:27.632Z,975.89
2023-02-03T02:40:27.853Z,975.8
2023-02-03T02:41:27.532Z,975.79
2023-02-03T02:42:27.656Z,975.76
2023-02-03T02:43:27.556Z,975.74
2023-02-03T02:44:27.552Z,975.75
2023-02-03T02:45:27.532Z,975.72
2023-02-03T02:46:27.708Z,975.7
2023-02-03T02:47:27.576Z,975.68
2023-02-03T02:48:27.574Z,975.61
2023-02-03T02:49:27.550Z,975.6
2023-02-03T02:50:27.925Z,975.51
2023-02-03T02:51:27.544Z,975.49
2023-02-03T02:52:27.705Z,975.43
2023-02-03T02:53:27.566Z,975.39
2023-02-03T02:54:27.573Z,975.38
2023-02-03T02:55:27.567Z,975.39
2023-02-03T02:56:27.557Z,975.41
2023-02-03T02:57:27.585Z,975.43
2023-02-03T02:58:27.574Z,975.42
2023-02-03T02:59:27.573Z,975.46
2023-02-03T03:00:28.014Z,975.45
2023-02-03T03:01:27.683Z,975.46
2023-02-03T03:02:27.697Z,975.42
2023-02-03T03:03:27.708Z,975.46
2023-02-03T03:04:27.644Z,975.52
2023-02-03T03:05:27.707Z,975.56
2023-02-03T03:06:27.667Z,975.59
2023-02-03T03:07:27.739Z,975.62
2023-02-03T03:08:27.703Z,975.63
2023-02-03T03:09:27.682Z,975.57
2023-02-03T03:10:28.098Z,975.55
2023-02-03T03:11:27.718Z,975.46
2023-02-03T03:12:27.675Z,975.45
2023-02-03T03:13:27.644Z,975.48
2023-02-03T03:14:27.715Z,975.45
2023-02-03T03:15:27.616Z,975.44
2023-02-03T03:16:27.623Z,975.46
2023-02-03T03:18:27.631Z,975.51
2023-02-03T03:19:27.613Z,975.5
2023-02-03T03:20:28.158Z,975.56
2023-02-03T03:21:27.702Z,975.54
2023-02-03T03:22:27.711Z,975.58
2023-02-03T03:23:27.738Z,975.59
2023-02-03T03:24:27.690Z,975.54
2023-02-03T03:25:27.647Z,975.56
2023-02-03T03:26:27.774Z,975.5
2023-02-03T03:27:27.799Z,975.49
2023-02-03T03:28:27.694Z,975.51
2023-02-03T03:29:27.721Z,975.5
2023-02-03T03:31:27.740Z,975.53
2023-02-03T03:32:27.640Z,975.52
2023-02-03T03:33:27.701Z,975.56
2023-02-03T03:35:27.814Z,975.5
2023-02-03T03:36:27.693Z,975.47
2023-02-03T03:38:27.741Z,975.42
2023-02-03T03:39:27.685Z,975.38
2023-02-03T03:40:27.990Z,975.36
2023-02-03T03:41:27.747Z,975.39
2023-02-03T03:42:28.395Z,975.32
2023-02-03T03:43:27.803Z,975.35
2023-02-03T03:44:27.692Z,975.28
2023-02-03T03:45:27.717Z,975.25
2023-02-03T03:46:27.867Z,975.26
2023-02-03T03:48:27.732Z,975.23
2023-02-03T03:49:27.813Z,975.22
2023-02-03T03:50:27.948Z,975.18
2023-02-03T03:51:27.701Z,975.19
2023-02-03T03:52:27.812Z,975.24
2023-02-03T03:54:27.709Z,975.31
2023-02-03T03:55:27.808Z,975.36
2023-02-03T03:56:27.769Z,975.4
2023-02-03T03:57:28.930Z,975.43
2023-02-03T03:58:27.792Z,975.38
2023-02-03T03:59:27.771Z,975.39
2023-02-03T04:01:28.008Z,975.35
2023-02-03T04:03:27.921Z,975.36
2023-02-03T04:04:27.732Z,975.33
2023-02-03T04:06:27.746Z,975.31
2023-02-03T04:08:27.888Z,975.26
2023-02-03T04:10:28.187Z,975.25
2023-02-03T04:11:27.810Z,975.23
2023-02-03T04:12:27.851Z,975.2
2023-02-03T04:13:27.832Z,975.16
2023-02-03T04:14:27.754Z,975.14
2023-02-03T04:15:27.864Z,975.13
2023-02-03T04:16:27.940Z,975.09
2023-02-03T04:18:27.899Z,975.07
2023-02-03T04:20:28.182Z,975.05
2023-02-03T04:21:27.881Z,975.02
2023-02-03T04:22:27.790Z,974.98
2023-02-03T04:23:27.832Z,975.02
2023-02-03T04:24:27.873Z,974.97
2023-02-03T04:25:27.848Z,974.9
2023-02-03T04:26:27.793Z,974.83
2023-02-03T04:27:27.777Z,974.85
2023-02-03T04:28:27.854Z,974.79
2023-02-03T04:29:27.791Z,974.81
2023-02-03T04:31:27.968Z,974.83
2023-02-03T04:32:27.935Z,974.81
2023-02-03T04:33:27.871Z,974.87
2023-02-03T04:34:27.839Z,974.89
2023-02-03T04:35:27.800Z,974.9
2023-02-03T04:36:27.783Z,974.93
2023-02-03T04:37:27.799Z,974.96
2023-02-03T04:38:27.809Z,974.99
2023-02-03T04:39:27.818Z,975
2023-02-03T04:40:28.296Z,974.99
2023-02-03T04:41:27.815Z,974.98
2023-02-03T04:42:27.914Z,974.99
2023-02-03T04:43:27.809Z,974.98
2023-02-03T04:44:27.937Z,974.96
2023-02-03T04:45:27.945Z,974.99
2023-02-03T04:46:27.820Z,974.91
2023-02-03T04:47:27.931Z,974.92
2023-02-03T04:48:27.922Z,974.89
2023-02-03T04:49:27.967Z,974.86
2023-02-03T04:50:28.197Z,974.82
2023-02-03T04:52:27.959Z,974.84
2023-02-03T04:53:27.949Z,974.81
2023-02-03T04:54:27.836Z,974.84
2023-02-03T04:55:27.971Z,974.87
2023-02-03T04:57:27.995Z,974.92
2023-02-03T04:58:27.891Z,974.96
2023-02-03T04:59:27.958Z,974.94
2023-02-03T05:00:28.162Z,975.01
2023-02-03T05:01:27.901Z,975.07
2023-02-03T05:02:27.860Z,975.13
2023-02-03T05:03:28.108Z,975.2
2023-02-03T05:04:27.886Z,975.23
2023-02-03T05:05:27.954Z,975.26
2023-02-03T05:06:29.227Z,975.29
2023-02-03T05:07:27.877Z,975.31
2023-02-03T05:08:27.972Z,975.34
2023-02-03T05:09:29.269Z,975.35
2023-02-03T05:10:28.193Z,975.34
2023-02-03T05:11:27.959Z,975.32
2023-02-03T05:12:27.938Z,975.35
2023-02-03T05:13:28.009Z,975.38
2023-02-03T05:14:27.886Z,975.4
2023-02-03T05:15:27.897Z,975.36
2023-02-03T05:16:28.040Z,975.4
2023-02-03T05:17:27.893Z,975.45
2023-02-03T05:19:28.053Z,975.48
2023-02-03T05:21:27.988Z,975.56
2023-02-03T05:22:28.015Z,975.6
2023-02-03T05:23:27.910Z,975.64
2023-02-03T05:24:27.915Z,975.63
2023-02-03T05:25:27.905Z,975.65
2023-02-03T05:26:27.990Z,975.66
2023-02-03T05:27:28.077Z,975.64
2023-02-03T05:28:28.033Z,975.67
2023-02-03T05:30:28.261Z,975.63
2023-02-03T05:31:28.036Z,975.65
2023-02-03T05:32:28.017Z,975.62
2023-02-03T05:33:27.986Z,975.6
2023-02-03T05:34:28.053Z,975.61
2023-02-03T05:35:28.050Z,975.58
2023-02-03T05:37:28.177Z,975.57
2023-02-03T05:38:27.948Z,975.51
2023-02-03T05:39:28.060Z,975.53
2023-02-03T05:40:28.408Z,975.52
2023-02-03T05:41:27.963Z,975.49
2023-02-03T05:42:28.093Z,975.51
2023-02-03T05:43:28.051Z,975.57
2023-02-03T05:44:28.042Z,975.59
2023-02-03T05:45:27.970Z,975.56
2023-02-03T05:46:28.045Z,975.61
2023-02-03T05:48:28.201Z,975.67
2023-02-03T05:49:28.074Z,975.71
2023-02-03T05:50:28.243Z,975.7
2023-02-03T05:51:28.121Z,975.72
2023-02-03T05:52:28.067Z,975.78
2023-02-03T05:53:27.982Z,975.84
2023-02-03T05:54:28.096Z,975.86
2023-02-03T05:55:28.056Z,975.89
2023-02-03T05:56:27.993Z,975.85
2023-02-03T05:58:28.082Z,975.9
2023-02-03T05:59:28.033Z,975.97
2023-02-03T06:00:28.411Z,976
2023-02-03T06:01:28.072Z,976.02
2023-02-03T06:02:28.148Z,976
2023-02-03T06:04:28.252Z,975.98
2023-02-03T06:05:28.038Z,975.96
2023-02-03T06:06:28.022Z,975.93
2023-02-03T06:07:28.090Z,975.87
2023-02-03T06:08:28.013Z,975.82
2023-02-03T06:09:28.117Z,975.77
2023-02-03T06:10:28.326Z,975.71
2023-02-03T06:11:28.161Z,975.64
2023-02-03T06:12:29.089Z,975.56
2023-02-03T06:13:28.256Z,975.49
2023-02-03T06:14:28.143Z,975.47
2023-02-03T06:15:28.126Z,975.44
2023-02-03T06:16:28.167Z,975.43
2023-02-03T06:18:28.153Z,975.36
2023-02-03T06:19:28.034Z,975.37
2023-02-03T06:20:28.402Z,975.35
2023-02-03T06:21:28.047Z,975.32
2023-02-03T06:22:28.213Z,975.3
2023-02-03T06:23:28.055Z,975.29
2023-02-03T06:24:28.056Z,975.3
2023-02-03T06:26:28.125Z,975.26
2023-02-03T06:27:28.163Z,975.19
2023-02-03T06:28:28.211Z,975.18
2023-02-03T06:29:28.087Z,975.15
2023-02-03T06:30:28.353Z,975.22
2023-02-03T06:32:28.088Z,975.23
2023-02-03T06:33:28.091Z,975.28
2023-02-03T06:34:28.085Z,975.25
2023-02-03T06:35:28.224Z,975.31
2023-02-03T06:36:28.079Z,975.3
2023-02-03T06:37:28.234Z,975.36
2023-02-03T06:38:28.116Z,975.37
2023-02-03T06:39:28.105Z,975.41
2023-02-03T06:40:28.406Z,975.44
2023-02-03T06:41:28.091Z,975.45
2023-02-03T06:42:28.187Z,975.44
2023-02-03T06:43:28.107Z,975.41
2023-02-03T06:46:28.186Z,975.43
2023-02-03T06:47:28.157Z,975.51
2023-02-03T06:48:28.128Z,975.59
2023-02-03T06:49:28.133Z,975.62
2023-02-03T06:50:28.393Z,975.68
2023-02-03T06:51:28.276Z,975.73
2023-02-03T06:52:28.237Z,975.78
2023-02-03T06:53:28.110Z,975.79
2023-02-03T06:54:28.130Z,975.78
2023-02-03T06:55:28.262Z,975.79
2023-02-03T06:56:28.121Z,975.8
2023-02-03T06:57:28.148Z,975.83
2023-02-03T06:58:28.139Z,975.87
2023-02-03T06:59:28.210Z,975.9
2023-02-03T07:00:28.540Z,975.92
2023-02-03T07:01:28.176Z,975.87
2023-02-03T07:03:28.396Z,975.89
2023-02-03T07:05:28.233Z,975.84
2023-02-03T07:06:28.141Z,975.81
2023-02-03T07:07:28.260Z,975.82
2023-02-03T07:08:28.224Z,975.84
2023-02-03T07:09:28.165Z,975.92
2023-02-03T07:10:28.513Z,975.98
2023-02-03T07:11:28.275Z,976
2023-02-03T07:12:28.170Z,976.02
2023-02-03T07:13:28.170Z,976.03
2023-02-03T07:14:28.233Z,976.04
2023-02-03T07:15:28.183Z,976.06
2023-02-03T07:16:28.167Z,976.09
2023-02-03T07:17:28.251Z,976.18
2023-02-03T07:18:46.110Z,976.17
2023-02-03T07:19:28.281Z,976.21
2023-02-03T07:20:29.805Z,976.26
2023-02-03T07:21:28.316Z,976.25
2023-02-03T07:23:28.446Z,976.19
2023-02-03T07:24:28.335Z,976.13
2023-02-03T07:25:28.276Z,976.14
2023-02-03T07:26:28.405Z,976.08
2023-02-03T07:27:28.215Z,976.05
2023-02-03T07:28:28.283Z,976.09
2023-02-03T07:29:28.366Z,976.13
2023-02-03T07:30:28.638Z,976.18
2023-02-03T07:31:28.430Z,976.21
2023-02-03T07:32:28.227Z,976.25
2023-02-03T07:33:28.371Z,976.26
2023-02-03T07:34:28.202Z,976.3
2023-02-03T07:35:28.227Z,976.26
2023-02-03T07:36:28.322Z,976.3
2023-02-03T07:37:28.232Z,976.29
2023-02-03T07:38:28.236Z,976.33
2023-02-03T07:39:28.228Z,976.34
2023-02-03T07:40:28.543Z,976.37
2023-02-03T07:41:28.245Z,976.35
2023-02-03T07:43:28.348Z,976.34
2023-02-03T07:44:28.272Z,976.31
2023-02-03T07:45:28.348Z,976.24
2023-02-03T07:46:28.332Z,976.19
2023-02-03T07:47:28.281Z,976.16
2023-02-03T07:48:28.347Z,976.11
2023-02-03T07:51:28.450Z,976.12
2023-02-03T07:53:28.356Z,976.1
2023-02-03T07:54:28.356Z,976.09
2023-02-03T07:55:28.318Z,976.01
2023-02-03T07:56:28.280Z,975.97
2023-02-03T07:58:28.317Z,975.96
2023-02-03T08:00:28.750Z,975.98
2023-02-03T08:01:28.336Z,976.08
2023-02-03T08:02:28.293Z,976.2
2023-02-03T08:03:28.380Z,976.31
2023-02-03T08:04:28.308Z,976.32
2023-02-03T08:05:28.430Z,976.29
2023-02-03T08:06:28.288Z,976.27
2023-02-03T08:07:28.307Z,976.3
2023-02-03T08:08:28.404Z,976.32
2023-02-03T08:09:28.388Z,976.35
2023-02-03T08:10:28.625Z,976.3
2023-02-03T08:11:28.436Z,976.26
2023-02-03T08:12:28.388Z,976.27
2023-02-03T08:13:28.491Z,976.23
2023-02-03T08:14:28.439Z,976.18
2023-02-03T08:15:28.311Z,976.08
2023-02-03T08:16:28.506Z,976.04
2023-02-03T08:17:28.420Z,976
2023-02-03T08:18:29.366Z,975.94
2023-02-03T08:19:28.575Z,975.88
2023-02-03T08:20:28.715Z,975.89
2023-02-03T08:21:28.398Z,975.85
2023-02-03T08:22:28.339Z,975.83
2023-02-03T08:23:28.417Z,975.86
2023-02-03T08:24:28.382Z,975.91
2023-02-03T08:25:28.331Z,975.92
2023-02-03T08:26:28.466Z,975.94
2023-02-03T08:27:28.350Z,975.98
2023-02-03T08:28:28.474Z,975.99
2023-02-03T08:29:28.430Z,976.06
2023-02-03T08:30:28.692Z,976.12
2023-02-03T08:31:28.471Z,976.23
2023-02-03T08:33:28.478Z,976.25
2023-02-03T08:34:28.504Z,976.23
2023-02-03T08:35:28.439Z,976.24
2023-02-03T08:37:28.569Z,976.25
2023-02-03T08:38:28.477Z,976.21
2023-02-03T08:39:28.369Z,976.2
2023-02-03T08:40:28.852Z,976.22
2023-02-03T08:41:28.455Z,976.15
2023-02-03T08:43:28.594Z,976.06
2023-02-03T08:44:28.405Z,976.12
2023-02-03T08:45:28.415Z,976.14
2023-02-03T08:46:28.406Z,976.08
2023-02-03T08:47:28.449Z,976.07
2023-02-03T08:48:28.428Z,976.04
2023-02-03T08:49:28.397Z,976.07
2023-02-03T08:50:28.790Z,976.04
2023-02-03T08:51:28.412Z,976.08
2023-02-03T08:52:28.414Z,976.1
2023-02-03T08:53:28.478Z,976.18
2023-02-03T08:54:28.403Z,976.17
2023-02-03T08:57:28.519Z,976.12
2023-02-03T08:58:28.541Z,976.09
2023-02-03T08:59:28.475Z,976.05
2023-02-03T09:02:28.472Z,976.09
2023-02-03T09:04:28.607Z,976.08
2023-02-03T09:05:28.442Z,976.11
2023-02-03T09:06:28.568Z,976.17
2023-02-03T09:08:28.591Z,976.23
2023-02-03T09:09:28.632Z,976.22
2023-02-03T09:10:28.781Z,976.24
2023-02-03T09:12:28.622Z,976.23
2023-02-03T09:13:28.504Z,976.18
2023-02-03T09:15:28.673Z,976.16
2023-02-03T09:16:28.495Z,976.15
2023-02-03T09:17:28.626Z,976.14
2023-02-03T09:18:28.506Z,976.15
2023-02-03T09:19:28.514Z,976.17
2023-02-03T09:20:28.907Z,976.12
2023-02-03T09:21:34.508Z,976.19
2023-02-03T09:22:28.585Z,976.16
2023-02-03T09:23:28.491Z,976.17
2023-02-03T09:24:29.043Z,976.12
2023-02-03T09:26:28.694Z,976.16
2023-02-03T09:27:28.497Z,976.19
2023-02-03T09:28:28.547Z,976.08
2023-02-03T09:30:28.975Z,976.07
2023-02-03T09:31:28.740Z,976.09
2023-02-03T09:32:28.488Z,976.04
2023-02-03T09:33:28.504Z,976.05
2023-02-03T09:34:28.528Z,976.08
2023-02-03T09:35:28.509Z,976.09
2023-02-03T09:36:28.535Z,976.1
2023-02-03T09:38:28.724Z,976.07
2023-02-03T09:39:28.595Z,976.02
2023-02-03T09:40:28.855Z,975.99
2023-02-03T09:41:28.628Z,975.97
2023-02-03T09:42:28.705Z,975.94
2023-02-03T09:43:28.663Z,975.89
2023-02-03T09:44:28.532Z,975.86
2023-02-03T09:45:28.615Z,975.81
2023-02-03T09:46:28.576Z,975.85
2023-02-03T09:47:28.643Z,975.82
2023-02-03T09:49:28.676Z,975.81
2023-02-03T09:50:28.894Z,975.85
2023-02-03T09:51:28.614Z,975.86
2023-02-03T09:52:28.560Z,975.84
2023-02-03T09:53:28.645Z,975.82
2023-02-03T09:54:28.564Z,975.85
2023-02-03T09:55:28.769Z,975.9
2023-02-03T09:56:28.569Z,975.82
2023-02-03T09:57:28.576Z,975.87
2023-02-03T09:58:28.558Z,975.81
2023-02-03T10:00:29.143Z,975.82
2023-02-03T10:01:28.604Z,975.8
2023-02-03T10:02:28.592Z,975.84
2023-02-03T10:03:28.574Z,975.81
2023-02-03T10:04:28.557Z,975.79
2023-02-03T10:06:28.593Z,975.83
2023-02-03T10:07:28.562Z,975.81
2023-02-03T10:08:28.661Z,975.86
2023-02-03T10:09:28.631Z,975.96
2023-02-03T10:10:28.804Z,975.94
2023-02-03T10:11:28.595Z,976
2023-02-03T10:12:28.621Z,975.91
2023-02-03T10:14:28.732Z,975.9
2023-02-03T10:15:28.626Z,975.91
2023-02-03T10:17:28.767Z,975.87
2023-02-03T10:18:28.729Z,975.9
2023-02-03T10:19:28.627Z,975.89
2023-02-03T10:20:28.874Z,975.92
2023-02-03T10:22:28.726Z,975.96
2023-02-03T10:24:28.800Z,975.98
2023-02-03T10:25:28.626Z,975.93
2023-02-03T10:26:28.614Z,975.92
2023-02-03T10:27:28.779Z,975.96
2023-02-03T10:28:28.758Z,975.95
2023-02-03T10:29:28.722Z,975.89
2023-02-03T10:30:29.079Z,975.93
2023-02-03T10:32:28.767Z,975.96
2023-02-03T10:33:28.696Z,976
2023-02-03T10:34:28.729Z,975.81
2023-02-03T10:35:28.634Z,975.92
2023-02-03T10:36:28.652Z,975.91
2023-02-03T10:37:30.232Z,975.94
2023-02-03T10:38:28.708Z,975.92
2023-02-03T10:39:28.761Z,975.85
2023-02-03T10:40:29.053Z,975.81
2023-02-03T10:41:28.828Z,975.83
2023-02-03T10:42:28.660Z,975.8
2023-02-03T10:43:28.695Z,975.77
2023-02-03T10:44:28.704Z,975.64
2023-02-03T10:46:28.862Z,975.57
2023-02-03T10:47:28.739Z,975.6
2023-02-03T10:48:28.673Z,975.61
2023-02-03T10:49:28.689Z,975.62
2023-02-03T10:50:29.003Z,975.65
2023-02-03T10:51:28.688Z,975.69
2023-02-03T10:52:28.690Z,975.65
2023-02-03T10:54:28.878Z,975.58
2023-02-03T10:55:28.751Z,975.61
2023-02-03T10:56:28.697Z,975.54
2023-02-03T10:58:28.796Z,975.55
2023-02-03T10:59:28.732Z,975.6
2023-02-03T11:00:29.154Z,975.66
2023-02-03T11:01:28.790Z,975.65
2023-02-03T11:02:28.789Z,975.7
2023-02-03T11:03:28.751Z,975.71
2023-02-03T11:04:28.718Z,975.72
2023-02-03T11:05:28.716Z,975.67
2023-02-03T11:07:28.953Z,975.65
2023-02-03T11:10:29.095Z,975.63
2023-02-03T11:11:28.933Z,975.62
2023-02-03T11:12:28.742Z,975.57
2023-02-03T11:13:28.890Z,975.59
2023-02-03T11:14:28.849Z,975.51
2023-02-03T11:15:28.993Z,975.49
2023-02-03T11:16:28.791Z,975.46
2023-02-03T11:17:28.850Z,975.41
2023-02-03T11:19:28.747Z,975.33
2023-02-03T11:20:29.168Z,975.3
2023-02-03T11:21:28.760Z,975.27
2023-02-03T11:22:28.779Z,975.22
2023-02-03T11:23:28.766Z,975.18
2023-02-03T11:24:28.777Z,975.15
2023-02-03T11:25:28.776Z,975.1
2023-02-03T11:26:28.760Z,975.12
2023-02-03T11:27:28.770Z,975.1
2023-02-03T11:28:28.768Z,975.12
2023-02-03T11:30:29.110Z,975.11
2023-02-03T11:31:28.915Z,975.15
2023-02-03T11:32:28.794Z,975.13
2023-02-03T11:33:28.842Z,975.15
2023-02-03T11:34:28.801Z,975.17
2023-02-03T11:35:28.810Z,975.15
2023-02-03T11:36:28.857Z,975.18
2023-02-03T11:37:28.795Z,975.21
2023-02-03T11:39:29.026Z,975.22
2023-02-03T11:40:29.203Z,975.17
2023-02-03T11:41:28.804Z,975.2
2023-02-03T11:43:28.884Z,975.24
2023-02-03T11:44:28.830Z,975.25
2023-02-03T11:45:28.870Z,975.29
2023-02-03T11:47:29.028Z,975.26
2023-02-03T11:48:28.832Z,975.22
2023-02-03T11:49:28.808Z,975.24
2023-02-03T11:50:29.110Z,975.3
2023-02-03T11:51:28.877Z,975.27
2023-02-03T11:52:28.817Z,975.32
2023-02-03T11:53:28.830Z,975.3
2023-02-03T11:54:28.873Z,975.34
2023-02-03T11:55:28.878Z,975.36
2023-02-03T11:56:28.847Z,975.38
2023-02-03T11:57:28.855Z,975.44
2023-02-03T11:58:28.843Z,975.48
2023-02-03T11:59:28.922Z,975.5
2023-02-03T12:00:29.267Z,975.47
2023-02-03T12:01:28.985Z,975.49
2023-02-03T12:03:28.956Z,975.44
2023-02-03T12:04:28.974Z,975.41
2023-02-03T12:06:29.112Z,975.32
2023-02-03T12:07:28.951Z,975.25
2023-02-03T12:08:28.943Z,975.22
2023-02-03T12:09:28.881Z,975.17
2023-02-03T12:11:28.948Z,975.08
2023-02-03T12:12:28.891Z,975.05
2023-02-03T12:13:28.894Z,974.96
2023-02-03T12:14:28.886Z,974.9
2023-02-03T12:15:28.900Z,974.86
2023-02-03T12:16:28.942Z,974.83
2023-02-03T12:17:28.904Z,974.81
2023-02-03T12:19:28.979Z,974.82
2023-02-03T12:22:28.899Z,974.98
2023-02-03T12:24:29.146Z,974.97
2023-02-03T12:25:28.925Z,974.95
2023-02-03T12:26:28.950Z,975.02
2023-02-03T12:27:28.927Z,975.04
2023-02-03T12:28:33.537Z,975.05
2023-02-03T12:29:31.010Z,974.98
2023-02-03T12:30:29.213Z,974.94
2023-02-03T12:31:29.073Z,974.93
2023-02-03T12:32:28.984Z,974.95
2023-02-03T12:34:29.024Z,974.94
2023-02-03T12:35:30.542Z,974.89
2023-02-03T12:36:29.034Z,974.87
2023-02-03T12:37:28.942Z,974.86
2023-02-03T12:38:28.949Z,974.82
2023-02-03T12:39:29.047Z,974.83
2023-02-03T12:40:29.258Z,974.79
2023-02-03T12:41:28.964Z,974.78
2023-02-03T12:43:29.017Z,974.77
2023-02-03T12:44:28.976Z,974.71
2023-02-03T12:45:29.122Z,974.65
2023-02-03T12:46:28.972Z,974.62
2023-02-03T12:47:29.000Z,974.59
2023-02-03T12:48:28.980Z,974.51
2023-02-03T12:50:29.364Z,974.43
2023-02-03T12:51:28.978Z,974.36
2023-02-03T12:52:28.986Z,974.33
2023-02-03T12:53:29.448Z,974.28
2023-02-03T12:54:28.972Z,974.29
2023-02-03T12:55:29.057Z,974.32
2023-02-03T12:56:29.092Z,974.26
2023-02-03T12:57:28.980Z,974.24
2023-02-03T12:58:28.989Z,974.22
2023-02-03T12:59:29.101Z,974.31
2023-02-03T13:00:29.287Z,974.28
2023-02-03T13:01:29.058Z,974.33
2023-02-03T13:05:29.056Z,974.34
2023-02-03T13:06:29.076Z,974.31
2023-02-03T13:07:29.045Z,974.24
2023-02-03T13:08:29.111Z,974.19
2023-02-03T13:09:29.088Z,974.13
2023-02-03T13:10:29.242Z,974.14
2023-02-03T13:11:29.015Z,974.13
2023-02-03T13:12:29.020Z,974.16
2023-02-03T13:14:29.167Z,974.12
2023-02-03T13:15:29.186Z,974.17
2023-02-03T13:16:29.154Z,974.19
2023-02-03T13:17:29.128Z,974.21
2023-02-03T13:18:29.043Z,974.24
2023-02-03T13:20:29.272Z,974.2
2023-02-03T13:21:29.048Z,974.19
2023-02-03T13:22:29.037Z,974.15
2023-02-03T13:24:29.095Z,974.12
2023-02-03T13:25:29.058Z,974.09
2023-02-03T13:26:29.173Z,974.12
2023-02-03T13:27:29.112Z,974.11
2023-02-03T13:28:29.168Z,974.13
2023-02-03T13:29:29.083Z,974.14
2023-02-03T13:30:29.335Z,974.17
2023-02-03T13:31:29.215Z,974.14
2023-02-03T13:32:29.125Z,974.12
2023-02-03T13:33:29.139Z,974.09
2023-02-03T13:34:29.081Z,974.02
2023-02-03T13:35:34.122Z,974.03
2023-02-03T13:36:29.083Z,973.99
2023-02-03T13:37:29.179Z,973.95
2023-02-03T13:38:29.100Z,973.89
2023-02-03T13:39:29.102Z,973.86
2023-02-03T13:40:29.411Z,973.82
2023-02-03T13:41:29.180Z,973.78
2023-02-03T13:42:29.218Z,973.81
2023-02-03T13:43:38.054Z,973.77
2023-02-03T13:44:29.234Z,973.81
2023-02-03T13:45:29.203Z,973.77
2023-02-03T13:46:29.187Z,973.74
2023-02-03T13:47:29.109Z,973.75
2023-02-03T13:48:29.201Z,973.77
2023-02-03T13:49:29.112Z,973.81
2023-02-03T13:50:29.591Z,973.85
2023-02-03T13:51:29.132Z,973.9
2023-02-03T13:52:29.139Z,973.87
2023-02-03T13:55:29.459Z,973.86
2023-02-03T13:56:29.175Z,973.8
2023-02-03T13:57:29.244Z,973.75
2023-02-03T13:58:29.253Z,973.76
2023-02-03T13:59:29.125Z,973.71
2023-02-03T14:00:29.243Z,973.7
2023-02-03T14:01:29.213Z,973.71
2023-02-03T14:02:29.127Z,973.74
2023-02-03T14:03:29.287Z,973.72
2023-02-03T14:05:29.377Z,973.78
2023-02-03T14:06:29.294Z,973.76
2023-02-03T14:07:29.150Z,973.83
2023-02-03T14:08:29.145Z,973.77
2023-02-03T14:09:29.252Z,973.78
2023-02-03T14:10:31.379Z,973.82
2023-02-03T14:11:29.488Z,973.86
2023-02-03T14:12:29.159Z,973.87
2023-02-03T14:13:29.230Z,973.94
2023-02-03T14:14:29.189Z,973.98
2023-02-03T14:15:29.609Z,974.04
2023-02-03T14:16:29.250Z,974.09
2023-02-03T14:17:29.180Z,974.11
2023-02-03T14:18:29.225Z,974.14
2023-02-03T14:19:29.248Z,974.21
2023-02-03T14:20:29.325Z,974.25
2023-02-03T14:21:29.281Z,974.24
2023-02-03T14:22:29.220Z,974.22
2023-02-03T14:23:29.305Z,974.2
2023-02-03T14:24:29.175Z,974.17
2023-02-03T14:25:29.458Z,974.14